sensor_id;sensor_type;location;lat;lon;timestamp;P1;durP1;ratioP1;P2;durP2;ratioP2
29218;SDS011;16421;50.202;7.852;2023-05-10T00:04:51;0.20;;;0.20;;
29218;SDS011;16421;50.202;7.852;2023-05-10T00:09:54;0.20;;;0.20;;
29218;SDS011;16421;50.202;7.852;2023-05-10T00:14:59;0.43;;;0.30;;
29218;SDS011;16421;50.202;7.852;2023-05-10T00:20:04;1.00;;;0.20;;
29218;SDS011;16421;50.202;7.852;2023-05-10T00:25:09;0.10;;;0.10;;
29218;SDS011;16421;50.202;7.852;2023-05-10T00:30:14;0.10;;;0.10;;
29218;SDS011;16421;50.202;7.852;2023-05-10T00:35:18;0.82;;;0.20;;
29218;SDS011;16421;50.202;7.852;2023-05-10T00:40:22;0.10;;;0.10;;
29218;SDS011;16421;50.202;7.852;2023-05-10T00:45:32;0.10;;;0.10;;
29218;SDS011;16421;50.202;7.852;2023-05-10T00:50:38;0.20;;;0.10;;
29218;SDS011;16421;50.202;7.852;2023-05-10T00:55:42;0.10;;;0.10;;
29218;SDS011;16421;50.202;7.852;2023-05-10T01:00:47;0.20;;;0.20;;
29218;SDS011;16421;50.202;7.852;2023-05-10T01:05:51;0.35;;;0.35;;
29218;SDS011;16421;50.202;7.852;2023-05-10T01:10:55;0.10;;;0.10;;
29218;SDS011;16421;50.202;7.852;2023-05-10T01:16:00;0.10;;;0.10;;
29218;SDS011;16421;50.202;7.852;2023-05-10T01:21:08;0.20;;;0.20;;
29218;SDS011;16421;50.202;7.852;2023-05-10T01:26:31;0.10;;;0.10;;
29218;SDS011;16421;50.202;7.852;2023-05-10T01:31:59;0.10;;;0.10;;
29218;SDS011;16421;50.202;7.852;2023-05-10T01:37:15;0.30;;;0.10;;
29218;SDS011;16421;50.202;7.852;2023-05-10T01:42:23;0.22;;;0.20;;
29218;SDS011;16421;50.202;7.852;2023-05-10T01:47:37;0.20;;;0.20;;
29218;SDS011;16421;50.202;7.852;2023-05-10T01:52:42;0.20;;;0.20;;
29218;SDS011;16421;50.202;7.852;2023-05-10T01:57:56;0.20;;;0.20;;
29218;SDS011;16421;50.202;7.852;2023-05-10T02:08:14;0.13;;;0.13;;
29218;SDS011;16421;50.202;7.852;2023-05-10T02:13:20;0.45;;;0.40;;
29218;SDS011;16421;50.202;7.852;2023-05-10T02:18:26;0.33;;;0.23;;
29218;SDS011;16421;50.202;7.852;2023-05-10T02:23:31;0.90;;;0.43;;
29218;SDS011;16421;50.202;7.852;2023-05-10T02:28:38;0.20;;;0.20;;
29218;SDS011;16421;50.202;7.852;2023-05-10T02:33:44;0.20;;;0.20;;
29218;SDS011;16421;50.202;7.852;2023-05-10T02:38:49;0.13;;;0.13;;
29218;SDS011;16421;50.202;7.852;2023-05-10T02:43:55;0.32;;;0.25;;
29218;SDS011;16421;50.202;7.852;2023-05-10T02:49:03;1.63;;;0.20;;
29218;SDS011;16421;50.202;7.852;2023-05-10T02:54:07;0.22;;;0.22;;
29218;SDS011;16421;50.202;7.852;2023-05-10T02:59:13;1.48;;;0.93;;
29218;SDS011;16421;50.202;7.852;2023-05-10T03:04:18;0.50;;;0.50;;
29218;SDS011;16421;50.202;7.852;2023-05-10T03:09:22;0.30;;;0.30;;
29218;SDS011;16421;50.202;7.852;2023-05-10T03:14:30;0.30;;;0.28;;
29218;SDS011;16421;50.202;7.852;2023-05-10T03:19:47;0.40;;;0.30;;
29218;SDS011;16421;50.202;7.852;2023-05-10T03:24:58;0.70;;;0.38;;
29218;SDS011;16421;50.202;7.852;2023-05-10T03:30:08;0.52;;;0.52;;
29218;SDS011;16421;50.202;7.852;2023-05-10T03:35:15;0.43;;;0.40;;
29218;SDS011;16421;50.202;7.852;2023-05-10T03:40:18;0.60;;;0.57;;
29218;SDS011;16421;50.202;7.852;2023-05-10T03:45:23;2.13;;;0.60;;
29218;SDS011;16421;50.202;7.852;2023-05-10T03:50:28;2.97;;;0.55;;
29218;SDS011;16421;50.202;7.852;2023-05-10T03:55:32;0.63;;;0.50;;
29218;SDS011;16421;50.202;7.852;2023-05-10T04:00:37;1.03;;;0.60;;
29218;SDS011;16421;50.202;7.852;2023-05-10T04:05:46;1.55;;;0.80;;
29218;SDS011;16421;50.202;7.852;2023-05-10T04:11:04;1.50;;;0.77;;
29218;SDS011;16421;50.202;7.852;2023-05-10T04:16:09;1.08;;;0.85;;
29218;SDS011;16421;50.202;7.852;2023-05-10T04:21:14;0.80;;;0.80;;
29218;SDS011;16421;50.202;7.852;2023-05-10T04:31:24;0.65;;;0.60;;
29218;SDS011;16421;50.202;7.852;2023-05-10T04:36:30;1.20;;;1.10;;
29218;SDS011;16421;50.202;7.852;2023-05-10T04:41:37;1.88;;;1.00;;
29218;SDS011;16421;50.202;7.852;2023-05-10T04:46:41;1.95;;;1.23;;
29218;SDS011;16421;50.202;7.852;2023-05-10T04:51:46;3.38;;;1.33;;
29218;SDS011;16421;50.202;7.852;2023-05-10T04:56:50;2.70;;;1.50;;
29218;SDS011;16421;50.202;7.852;2023-05-10T05:07:18;1.83;;;1.30;;
29218;SDS011;16421;50.202;7.852;2023-05-10T05:12:22;3.50;;;1.83;;
29218;SDS011;16421;50.202;7.852;2023-05-10T05:17:25;2.40;;;1.00;;
29218;SDS011;16421;50.202;7.852;2023-05-10T05:22:29;2.80;;;1.00;;
29218;SDS011;16421;50.202;7.852;2023-05-10T05:27:33;3.15;;;1.02;;
29218;SDS011;16421;50.202;7.852;2023-05-10T05:32:36;1.52;;;1.27;;
29218;SDS011;16421;50.202;7.852;2023-05-10T05:37:41;1.08;;;0.90;;
29218;SDS011;16421;50.202;7.852;2023-05-10T05:42:44;1.50;;;0.82;;
29218;SDS011;16421;50.202;7.852;2023-05-10T05:47:47;1.73;;;0.88;;
29218;SDS011;16421;50.202;7.852;2023-05-10T05:52:52;1.60;;;1.10;;
29218;SDS011;16421;50.202;7.852;2023-05-10T05:57:55;1.48;;;1.13;;
29218;SDS011;16421;50.202;7.852;2023-05-10T06:02:58;1.48;;;0.90;;
29218;SDS011;16421;50.202;7.852;2023-05-10T06:08:03;1.95;;;1.00;;
29218;SDS011;16421;50.202;7.852;2023-05-10T06:13:07;1.38;;;0.80;;
29218;SDS011;16421;50.202;7.852;2023-05-10T06:18:11;1.65;;;1.20;;
29218;SDS011;16421;50.202;7.852;2023-05-10T06:23:15;3.17;;;0.75;;
29218;SDS011;16421;50.202;7.852;2023-05-10T06:28:19;1.80;;;1.60;;
29218;SDS011;16421;50.202;7.852;2023-05-10T06:33:23;1.88;;;1.15;;
29218;SDS011;16421;50.202;7.852;2023-05-10T06:38:28;3.25;;;1.30;;
29218;SDS011;16421;50.202;7.852;2023-05-10T06:43:32;1.92;;;1.25;;
29218;SDS011;16421;50.202;7.852;2023-05-10T06:48:35;2.10;;;1.38;;
29218;SDS011;16421;50.202;7.852;2023-05-10T06:53:39;3.50;;;1.40;;
29218;SDS011;16421;50.202;7.852;2023-05-10T06:58:43;5.78;;;2.00;;
29218;SDS011;16421;50.202;7.852;2023-05-10T07:03:46;2.30;;;1.55;;
29218;SDS011;16421;50.202;7.852;2023-05-10T07:08:51;2.55;;;1.52;;
29218;SDS011;16421;50.202;7.852;2023-05-10T07:13:54;2.90;;;1.63;;
29218;SDS011;16421;50.202;7.852;2023-05-10T07:18:57;2.28;;;1.13;;
29218;SDS011;16421;50.202;7.852;2023-05-10T07:24:02;1.95;;;1.23;;
29218;SDS011;16421;50.202;7.852;2023-05-10T07:29:05;2.53;;;1.40;;
29218;SDS011;16421;50.202;7.852;2023-05-10T07:34:09;1.58;;;0.95;;
29218;SDS011;16421;50.202;7.852;2023-05-10T07:39:13;3.47;;;1.38;;
29218;SDS011;16421;50.202;7.852;2023-05-10T07:44:21;4.13;;;1.27;;
29218;SDS011;16421;50.202;7.852;2023-05-10T07:49:25;2.65;;;1.30;;
29218;SDS011;16421;50.202;7.852;2023-05-10T07:54:30;1.23;;;0.93;;
29218;SDS011;16421;50.202;7.852;2023-05-10T07:59:33;2.25;;;1.48;;
29218;SDS011;16421;50.202;7.852;2023-05-10T08:04:36;1.60;;;1.17;;
29218;SDS011;16421;50.202;7.852;2023-05-10T08:09:41;2.47;;;1.15;;
29218;SDS011;16421;50.202;7.852;2023-05-10T08:14:44;2.50;;;0.90;;
29218;SDS011;16421;50.202;7.852;2023-05-10T08:19:47;2.15;;;1.20;;
29218;SDS011;16421;50.202;7.852;2023-05-10T08:24:52;1.67;;;0.80;;
29218;SDS011;16421;50.202;7.852;2023-05-10T08:29:55;2.05;;;1.08;;
29218;SDS011;16421;50.202;7.852;2023-05-10T08:34:58;2.30;;;1.08;;
29218;SDS011;16421;50.202;7.852;2023-05-10T08:40:03;2.75;;;1.23;;
29218;SDS011;16421;50.202;7.852;2023-05-10T08:45:08;3.85;;;1.33;;
29218;SDS011;16421;50.202;7.852;2023-05-10T08:50:12;2.30;;;1.10;;
29218;SDS011;16421;50.202;7.852;2023-05-10T08:55:18;1.48;;;0.80;;
29218;SDS011;16421;50.202;7.852;2023-05-10T09:00:21;0.80;;;0.60;;
29218;SDS011;16421;50.202;7.852;2023-05-10T09:05:26;0.50;;;0.47;;
29218;SDS011;16421;50.202;7.852;2023-05-10T09:10:30;0.32;;;0.32;;
29218;SDS011;16421;50.202;7.852;2023-05-10T09:15:34;1.23;;;0.60;;
29218;SDS011;16421;50.202;7.852;2023-05-10T09:20:38;0.30;;;0.30;;
29218;SDS011;16421;50.202;7.852;2023-05-10T09:25:42;0.35;;;0.30;;
29218;SDS011;16421;50.202;7.852;2023-05-10T09:30:46;0.30;;;0.30;;
29218;SDS011;16421;50.202;7.852;2023-05-10T09:36:05;0.95;;;0.20;;
29218;SDS011;16421;50.202;7.852;2023-05-10T09:41:16;0.52;;;0.40;;
29218;SDS011;16421;50.202;7.852;2023-05-10T09:46:20;1.08;;;0.50;;
29218;SDS011;16421;50.202;7.852;2023-05-10T09:51:24;1.48;;;0.55;;
29218;SDS011;16421;50.202;7.852;2023-05-10T09:56:36;0.38;;;0.35;;
29218;SDS011;16421;50.202;7.852;2023-05-10T10:01:41;0.40;;;0.40;;
29218;SDS011;16421;50.202;7.852;2023-05-10T10:07:00;1.95;;;0.40;;
29218;SDS011;16421;50.202;7.852;2023-05-10T10:12:06;0.93;;;0.22;;
29218;SDS011;16421;50.202;7.852;2023-05-10T10:17:09;0.57;;;0.30;;
29218;SDS011;16421;50.202;7.852;2023-05-10T10:22:14;0.43;;;0.30;;
29218;SDS011;16421;50.202;7.852;2023-05-10T10:27:21;0.57;;;0.35;;
29218;SDS011;16421;50.202;7.852;2023-05-10T10:32:32;0.50;;;0.35;;
29218;SDS011;16421;50.202;7.852;2023-05-10T10:37:44;0.40;;;0.20;;
29218;SDS011;16421;50.202;7.852;2023-05-10T10:42:50;0.20;;;0.20;;
29218;SDS011;16421;50.202;7.852;2023-05-10T10:47:56;2.08;;;0.30;;
29218;SDS011;16421;50.202;7.852;2023-05-10T10:53:25;0.70;;;0.20;;
29218;SDS011;16421;50.202;7.852;2023-05-10T10:58:31;0.20;;;0.20;;
29218;SDS011;16421;50.202;7.852;2023-05-10T11:41:39;0.30;;;0.30;;
29218;SDS011;16421;50.202;7.852;2023-05-10T12:00:31;0.28;;;0.20;;
29218;SDS011;16421;50.202;7.852;2023-05-10T12:05:35;0.10;;;0.10;;
29218;SDS011;16421;50.202;7.852;2023-05-10T12:10:39;0.82;;;0.30;;
29218;SDS011;16421;50.202;7.852;2023-05-10T12:15:44;0.50;;;0.20;;
29218;SDS011;16421;50.202;7.852;2023-05-10T12:20:48;1.48;;;0.30;;
29218;SDS011;16421;50.202;7.852;2023-05-10T12:26:01;0.10;;;0.10;;
29218;SDS011;16421;50.202;7.852;2023-05-10T12:31:06;1.08;;;0.20;;
29218;SDS011;16421;50.202;7.852;2023-05-10T12:36:10;0.60;;;0.47;;
29218;SDS011;16421;50.202;7.852;2023-05-10T12:41:15;0.40;;;0.20;;
29218;SDS011;16421;50.202;7.852;2023-05-10T12:46:21;1.48;;;0.22;;
29218;SDS011;16421;50.202;7.852;2023-05-10T12:51:26;0.20;;;0.10;;
29218;SDS011;16421;50.202;7.852;2023-05-10T12:56:29;0.20;;;0.20;;
29218;SDS011;16421;50.202;7.852;2023-05-10T13:01:34;0.10;;;0.10;;
29218;SDS011;16421;50.202;7.852;2023-05-10T13:06:38;0.20;;;0.20;;
29218;SDS011;16421;50.202;7.852;2023-05-10T13:11:41;1.35;;;0.22;;
29218;SDS011;16421;50.202;7.852;2023-05-10T13:16:46;0.60;;;0.30;;
29218;SDS011;16421;50.202;7.852;2023-05-10T13:21:50;2.05;;;0.20;;
29218;SDS011;16421;50.202;7.852;2023-05-10T13:26:53;0.50;;;0.30;;
29218;SDS011;16421;50.202;7.852;2023-05-10T13:31:58;0.10;;;0.10;;
29218;SDS011;16421;50.202;7.852;2023-05-10T13:37:01;0.10;;;0.10;;
29218;SDS011;16421;50.202;7.852;2023-05-10T13:42:05;0.25;;;0.20;;
29218;SDS011;16421;50.202;7.852;2023-05-10T13:47:09;0.73;;;0.20;;
29218;SDS011;16421;50.202;7.852;2023-05-10T13:52:14;0.20;;;0.20;;
29218;SDS011;16421;50.202;7.852;2023-05-10T13:57:17;0.55;;;0.20;;
29218;SDS011;16421;50.202;7.852;2023-05-10T14:02:22;0.60;;;0.40;;
29218;SDS011;16421;50.202;7.852;2023-05-10T14:07:25;0.32;;;0.20;;
29218;SDS011;16421;50.202;7.852;2023-05-10T14:12:31;0.47;;;0.20;;
29218;SDS011;16421;50.202;7.852;2023-05-10T14:17:36;1.27;;;0.10;;
29218;SDS011;16421;50.202;7.852;2023-05-10T14:22:39;0.95;;;0.50;;
29218;SDS011;16421;50.202;7.852;2023-05-10T14:27:43;0.68;;;0.40;;
29218;SDS011;16421;50.202;7.852;2023-05-10T14:32:48;0.30;;;0.30;;
29218;SDS011;16421;50.202;7.852;2023-05-10T14:37:51;0.68;;;0.45;;
29218;SDS011;16421;50.202;7.852;2023-05-10T14:42:55;0.47;;;0.43;;
29218;SDS011;16421;50.202;7.852;2023-05-10T14:47:59;0.47;;;0.30;;
29218;SDS011;16421;50.202;7.852;2023-05-10T14:53:05;1.40;;;0.45;;
29218;SDS011;16421;50.202;7.852;2023-05-10T14:58:09;1.35;;;0.40;;
29218;SDS011;16421;50.202;7.852;2023-05-10T15:03:13;0.73;;;0.52;;
29218;SDS011;16421;50.202;7.852;2023-05-10T15:08:17;2.00;;;0.70;;
29218;SDS011;16421;50.202;7.852;2023-05-10T15:13:20;5.22;;;0.95;;
29218;SDS011;16421;50.202;7.852;2023-05-10T15:18:25;0.57;;;0.47;;
29218;SDS011;16421;50.202;7.852;2023-05-10T15:23:29;2.38;;;0.32;;
29218;SDS011;16421;50.202;7.852;2023-05-10T15:28:33;1.52;;;0.50;;
29218;SDS011;16421;50.202;7.852;2023-05-10T15:33:38;1.67;;;0.40;;
29218;SDS011;16421;50.202;7.852;2023-05-10T15:38:41;0.85;;;0.47;;
29218;SDS011;16421;50.202;7.852;2023-05-10T15:43:44;1.25;;;0.75;;
29218;SDS011;16421;50.202;7.852;2023-05-10T15:48:49;0.80;;;0.40;;
29218;SDS011;16421;50.202;7.852;2023-05-10T15:53:52;1.95;;;0.70;;
29218;SDS011;16421;50.202;7.852;2023-05-10T15:59:05;1.75;;;0.45;;
29218;SDS011;16421;50.202;7.852;2023-05-10T16:04:12;1.65;;;0.40;;
29218;SDS011;16421;50.202;7.852;2023-05-10T16:09:15;2.72;;;0.60;;
29218;SDS011;16421;50.202;7.852;2023-05-10T16:14:19;1.15;;;0.50;;
29218;SDS011;16421;50.202;7.852;2023-05-10T16:19:26;2.33;;;0.40;;
29218;SDS011;16421;50.202;7.852;2023-05-10T16:24:33;1.73;;;0.70;;
29218;SDS011;16421;50.202;7.852;2023-05-10T16:29:37;1.38;;;0.65;;
29218;SDS011;16421;50.202;7.852;2023-05-10T16:34:42;1.42;;;0.70;;
29218;SDS011;16421;50.202;7.852;2023-05-10T16:39:45;1.48;;;0.40;;
29218;SDS011;16421;50.202;7.852;2023-05-10T16:44:49;0.50;;;0.50;;
29218;SDS011;16421;50.202;7.852;2023-05-10T16:49:54;0.90;;;0.47;;
29218;SDS011;16421;50.202;7.852;2023-05-10T16:54:57;0.60;;;0.40;;
29218;SDS011;16421;50.202;7.852;2023-05-10T17:00:01;2.55;;;0.85;;
29218;SDS011;16421;50.202;7.852;2023-05-10T17:05:07;0.55;;;0.30;;
29218;SDS011;16421;50.202;7.852;2023-05-10T17:10:11;0.60;;;0.30;;
29218;SDS011;16421;50.202;7.852;2023-05-10T17:15:14;0.50;;;0.40;;
29218;SDS011;16421;50.202;7.852;2023-05-10T17:20:20;1.65;;;0.73;;
29218;SDS011;16421;50.202;7.852;2023-05-10T17:25:24;2.03;;;0.98;;
29218;SDS011;16421;50.202;7.852;2023-05-10T17:30:27;3.53;;;1.10;;
29218;SDS011;16421;50.202;7.852;2023-05-10T17:35:34;1.60;;;0.70;;
29218;SDS011;16421;50.202;7.852;2023-05-10T17:40:38;0.30;;;0.20;;
29218;SDS011;16421;50.202;7.852;2023-05-10T17:45:42;0.40;;;0.20;;
29218;SDS011;16421;50.202;7.852;2023-05-10T17:50:50;3.30;;;0.30;;
29218;SDS011;16421;50.202;7.852;2023-05-10T17:55:53;0.20;;;0.20;;
29218;SDS011;16421;50.202;7.852;2023-05-10T18:00:59;0.30;;;0.13;;
29218;SDS011;16421;50.202;7.852;2023-05-10T18:06:04;0.93;;;0.10;;
29218;SDS011;16421;50.202;7.852;2023-05-10T18:16:11;0.47;;;0.20;;
29218;SDS011;16421;50.202;7.852;2023-05-10T18:21:16;0.22;;;0.13;;
29218;SDS011;16421;50.202;7.852;2023-05-10T18:26:20;0.10;;;0.10;;
29218;SDS011;16421;50.202;7.852;2023-05-10T18:31:23;0.55;;;0.20;;
29218;SDS011;16421;50.202;7.852;2023-05-10T18:36:28;0.40;;;0.40;;
29218;SDS011;16421;50.202;7.852;2023-05-10T18:41:32;0.95;;;0.30;;
29218;SDS011;16421;50.202;7.852;2023-05-10T18:46:39;0.85;;;0.30;;
29218;SDS011;16421;50.202;7.852;2023-05-10T18:51:47;1.75;;;0.15;;
29218;SDS011;16421;50.202;7.852;2023-05-10T18:56:52;0.82;;;0.10;;
29218;SDS011;16421;50.202;7.852;2023-05-10T19:01:57;0.30;;;0.10;;
29218;SDS011;16421;50.202;7.852;2023-05-10T19:07:05;0.10;;;0.10;;
29218;SDS011;16421;50.202;7.852;2023-05-10T19:12:14;0.40;;;0.10;;
29218;SDS011;16421;50.202;7.852;2023-05-10T19:17:20;0.32;;;0.10;;
29218;SDS011;16421;50.202;7.852;2023-05-10T19:22:24;0.30;;;0.30;;
29218;SDS011;16421;50.202;7.852;2023-05-10T19:27:36;0.45;;;0.30;;
29218;SDS011;16421;50.202;7.852;2023-05-10T19:32:42;2.47;;;0.80;;
29218;SDS011;16421;50.202;7.852;2023-05-10T19:37:47;1.83;;;0.60;;
29218;SDS011;16421;50.202;7.852;2023-05-10T19:42:51;0.80;;;0.50;;
29218;SDS011;16421;50.202;7.852;2023-05-10T19:47:57;0.38;;;0.35;;
29218;SDS011;16421;50.202;7.852;2023-05-10T19:53:03;0.50;;;0.50;;
29218;SDS011;16421;50.202;7.852;2023-05-10T19:58:11;0.60;;;0.43;;
29218;SDS011;16421;50.202;7.852;2023-05-10T20:03:17;3.10;;;1.10;;
29218;SDS011;16421;50.202;7.852;2023-05-10T20:08:23;2.17;;;1.48;;
29218;SDS011;16421;50.202;7.852;2023-05-10T20:13:31;1.35;;;0.95;;
29218;SDS011;16421;50.202;7.852;2023-05-10T20:18:34;1.08;;;0.57;;
29218;SDS011;16421;50.202;7.852;2023-05-10T20:23:40;0.30;;;0.30;;
29218;SDS011;16421;50.202;7.852;2023-05-10T20:28:43;0.50;;;0.40;;
29218;SDS011;16421;50.202;7.852;2023-05-10T20:33:46;2.35;;;0.50;;
29218;SDS011;16421;50.202;7.852;2023-05-10T20:38:51;0.93;;;0.45;;
29218;SDS011;16421;50.202;7.852;2023-05-10T20:44:00;2.40;;;0.70;;
29218;SDS011;16421;50.202;7.852;2023-05-10T20:54:08;0.68;;;0.50;;
29218;SDS011;16421;50.202;7.852;2023-05-10T20:59:11;1.55;;;0.73;;
29218;SDS011;16421;50.202;7.852;2023-05-10T21:04:15;1.15;;;0.50;;
29218;SDS011;16421;50.202;7.852;2023-05-10T21:09:19;1.10;;;0.38;;
29218;SDS011;16421;50.202;7.852;2023-05-10T21:14:23;0.20;;;0.20;;
29218;SDS011;16421;50.202;7.852;2023-05-10T21:19:27;0.30;;;0.30;;
29218;SDS011;16421;50.202;7.852;2023-05-10T21:24:32;0.40;;;0.35;;
29218;SDS011;16421;50.202;7.852;2023-05-10T21:29:36;0.70;;;0.30;;
29218;SDS011;16421;50.202;7.852;2023-05-10T21:34:39;1.92;;;0.40;;
29218;SDS011;16421;50.202;7.852;2023-05-10T21:39:44;0.65;;;0.30;;
29218;SDS011;16421;50.202;7.852;2023-05-10T21:44:47;0.60;;;0.35;;
29218;SDS011;16421;50.202;7.852;2023-05-10T21:50:00;2.95;;;0.68;;
29218;SDS011;16421;50.202;7.852;2023-05-10T21:55:06;0.40;;;0.17;;
29218;SDS011;16421;50.202;7.852;2023-05-10T22:05:14;0.30;;;0.20;;
29218;SDS011;16421;50.202;7.852;2023-05-10T22:10:20;0.43;;;0.28;;
29218;SDS011;16421;50.202;7.852;2023-05-10T22:15:23;0.40;;;0.25;;
29218;SDS011;16421;50.202;7.852;2023-05-10T22:20:27;0.10;;;0.10;;
29218;SDS011;16421;50.202;7.852;2023-05-10T22:25:32;0.50;;;0.38;;
29218;SDS011;16421;50.202;7.852;2023-05-10T22:30:36;0.82;;;0.40;;
29218;SDS011;16421;50.202;7.852;2023-05-10T22:35:39;0.50;;;0.30;;
29218;SDS011;16421;50.202;7.852;2023-05-10T22:40:44;0.93;;;0.30;;
29218;SDS011;16421;50.202;7.852;2023-05-10T22:45:48;0.30;;;0.30;;
29218;SDS011;16421;50.202;7.852;2023-05-10T22:50:52;0.28;;;0.25;;
29218;SDS011;16421;50.202;7.852;2023-05-10T22:55:59;0.30;;;0.30;;
29218;SDS011;16421;50.202;7.852;2023-05-10T23:01:03;1.73;;;0.40;;
29218;SDS011;16421;50.202;7.852;2023-05-10T23:06:07;0.70;;;0.40;;
29218;SDS011;16421;50.202;7.852;2023-05-10T23:11:11;0.30;;;0.30;;
29218;SDS011;16421;50.202;7.852;2023-05-10T23:16:15;0.43;;;0.30;;
29218;SDS011;16421;50.202;7.852;2023-05-10T23:21:19;1.48;;;0.40;;
29218;SDS011;16421;50.202;7.852;2023-05-10T23:26:24;0.52;;;0.30;;
29218;SDS011;16421;50.202;7.852;2023-05-10T23:31:27;0.90;;;0.50;;
29218;SDS011;16421;50.202;7.852;2023-05-10T23:36:31;0.25;;;0.20;;
29218;SDS011;16421;50.202;7.852;2023-05-10T23:41:36;1.67;;;0.40;;
29218;SDS011;16421;50.202;7.852;2023-05-10T23:46:39;0.50;;;0.50;;
29218;SDS011;16421;50.202;7.852;2023-05-10T23:51:43;0.50;;;0.38;;
29218;SDS011;16421;50.202;7.852;2023-05-10T23:56:48;1.98;;;0.50;;
